^^
B2 Weather Station Historical Data
Daily Summary for March 8, 2018 Units:  English    Metric   Both
Daily Weekly Monthly Yearly Custom
  High: Low: Average:
Temperature: 32.8 °F 22.2 °F 27 °F
Dew Point: 22.9 °F 17.7 °F 19.5 °F
Humidity: 89% 58% 74%
Wind Speed: 20.7mph 0.0mph 8.5mph
Wind Gust: 20.7mph - -
Wind- - WNW
Pressure: 30.09 in 30.01 in -
Precipitation: 0.00 in    
Historical Graphs
 
 
Tabular Data for March 8, 2018
Time Temperature Dew Point Pressure Wind Wind Speed Wind Gust Humidity Rainfall Rate (Hourly) solar
00:02 27.1 °F 22.6 °F 30.04 in NW 11.5 mph 11.5 mph 83% 0.00 in 0.0 W/m2
00:07 27.0 °F 22.8 °F 30.04 in NW 11.5 mph 11.5 mph 84% 0.00 in 0.0 W/m2
00:12 26.8 °F 22.9 °F 30.03 in NW 11.5 mph 11.5 mph 85% 0.00 in 0.0 W/m2
00:17 26.8 °F 22.9 °F 30.04 in NW 11.5 mph 11.5 mph 85% 0.00 in 0.0 W/m2
00:22 26.6 °F 22.7 °F 30.04 in West 11.5 mph 11.5 mph 85% 0.00 in 0.0 W/m2
00:27 26.4 °F 22.5 °F 30.03 in West 11.5 mph 11.5 mph 85% 0.00 in 0.0 W/m2
00:32 26.2 °F 22.6 °F 30.03 in NW 8.1 mph 8.1 mph 86% 0.00 in 0.0 W/m2
00:37 26.0 °F 22.4 °F 30.03 in West 12.7 mph 12.7 mph 86% 0.00 in 0.0 W/m2
00:42 25.5 °F 21.9 °F 30.03 in NW 10.4 mph 10.4 mph 86% 0.00 in 0.0 W/m2
00:47 25.4 °F 22.1 °F 30.03 in WNW 8.1 mph 8.1 mph 87% 0.00 in 0.0 W/m2
00:52 25.5 °F 22.4 °F 30.03 in NW 11.0 mph 11.0 mph 88% 0.00 in 0.0 W/m2
00:57 25.6 °F 22.8 °F 30.03 in WNW 6.9 mph 6.9 mph 89% 0.00 in 0.0 W/m2
01:02 25.6 °F 22.5 °F 30.03 in WNW 11.5 mph 11.5 mph 88% 0.00 in 0.0 W/m2
01:07 25.6 °F 22.5 °F 30.03 in WNW 11.5 mph 11.5 mph 88% 0.00 in 0.0 W/m2
01:12 25.4 °F 22.3 °F 30.03 in NW 10.0 mph 10.0 mph 88% 0.00 in 0.0 W/m2
01:17 25.4 °F 22.6 °F 30.03 in WNW 11.5 mph 11.5 mph 89% 0.00 in 0.0 W/m2
01:22 24.9 °F 21.8 °F 30.02 in WNW 5.8 mph 5.8 mph 88% 0.00 in 0.0 W/m2
01:27 24.8 °F 21.8 °F 30.03 in West 1.2 mph   88% 0.00 in 0.0 W/m2
01:32 24.8 °F 21.8 °F 30.02 in WNW 4.0 mph 4.0 mph 88% 0.00 in 0.0 W/m2
01:37 24.8 °F 21.8 °F 30.02 in WNW 1.2 mph   88% 0.00 in 0.0 W/m2
01:42 24.8 °F 21.8 °F 30.02 in NW 7.0 mph 7.0 mph 88% 0.00 in 0.0 W/m2
01:47 24.8 °F 21.5 °F 30.03 in NW 11.5 mph 11.5 mph 87% 0.00 in 0.0 W/m2
01:52 24.9 °F 21.6 °F 30.02 in NW 4.6 mph 4.6 mph 87% 0.00 in 0.0 W/m2
01:57 24.9 °F 21.6 °F 30.02 in NW 6.9 mph 6.9 mph 87% 0.00 in 0.0 W/m2
02:02 25.0 °F 21.7 °F 30.02 in NW 4.6 mph 4.6 mph 87% 0.00 in 0.0 W/m2
02:07 25.1 °F 21.8 °F 30.02 in NW 9.0 mph 9.0 mph 87% 0.00 in 0.0 W/m2
02:12 25.2 °F 21.6 °F 30.02 in WNW 4.6 mph 4.6 mph 86% 0.00 in 0.0 W/m2
02:17 25.2 °F 21.6 °F 30.02 in NW 4.6 mph 4.6 mph 86% 0.00 in 0.0 W/m2
02:22 25.2 °F 21.6 °F 30.02 in Calm     86% 0.00 in 0.0 W/m2
02:27 25.0 °F 21.4 °F 30.02 in WNW 1.2 mph   86% 0.00 in 0.0 W/m2
02:32 24.9 °F 21.3 °F 30.02 in WNW 1.2 mph   86% 0.00 in 0.0 W/m2
02:37 24.8 °F 21.2 °F 30.02 in WNW 5.0 mph 5.0 mph 86% 0.00 in 0.0 W/m2
02:42 24.8 °F 21.2 °F 30.01 in WNW 1.0 mph   86% 0.00 in 0.0 W/m2
02:47 24.8 °F 21.2 °F 30.02 in WNW 5.8 mph 5.8 mph 86% 0.00 in 0.0 W/m2
02:52 24.8 °F 21.5 °F 30.01 in WNW 1.2 mph   87% 0.00 in 0.0 W/m2
02:57 24.8 °F 21.5 °F 30.01 in WNW 3.5 mph   87% 0.00 in 0.0 W/m2
03:02 24.8 °F 21.5 °F 30.02 in WNW 5.8 mph 5.8 mph 87% 0.00 in 0.0 W/m2
03:07 24.9 °F 21.6 °F 30.02 in NW 3.0 mph 3.0 mph 87% 0.00 in 0.0 W/m2
03:12 24.9 °F 21.3 °F 30.02 in WNW 4.6 mph 4.6 mph 86% 0.00 in 0.0 W/m2
03:17 24.9 °F 21.3 °F 30.02 in NW 5.8 mph 5.8 mph 86% 0.00 in 0.0 W/m2
03:22 24.8 °F 20.7 °F 30.02 in WNW 5.8 mph 5.8 mph 84% 0.00 in 0.0 W/m2
03:27 24.8 °F 20.7 °F 30.02 in NW 8.1 mph 8.1 mph 84% 0.00 in 0.0 W/m2
03:32 24.8 °F 20.7 °F 30.02 in West 6.9 mph 6.9 mph 84% 0.00 in 0.0 W/m2
03:38 24.8 °F 20.7 °F 30.02 in WNW 6.9 mph 6.9 mph 84% 0.00 in 0.0 W/m2
03:43 24.7 °F 20.6 °F 30.02 in West 7.0 mph 7.0 mph 84% 0.00 in 0.0 W/m2
03:48 24.7 °F 20.8 °F 30.02 in WNW 5.8 mph 5.8 mph 85% 0.00 in 0.0 W/m2
03:53 24.7 °F 20.8 °F 30.03 in WNW 8.1 mph 8.1 mph 85% 0.00 in 0.0 W/m2
03:58 24.6 °F 20.7 °F 30.03 in WNW 7.0 mph 7.0 mph 85% 0.00 in 0.0 W/m2
04:03 24.6 °F 20.7 °F 30.03 in WNW 2.0 mph 2.0 mph 85% 0.00 in 0.0 W/m2
04:08 24.5 °F 20.6 °F 30.03 in WNW 9.2 mph 9.2 mph 85% 0.00 in 0.0 W/m2
04:13 24.5 °F 20.6 °F 30.03 in WNW 9.2 mph 9.2 mph 85% 0.00 in 0.0 W/m2
04:18 24.4 °F 20.5 °F 30.03 in WNW 11.5 mph 11.5 mph 85% 0.00 in 0.0 W/m2
04:23 24.2 °F 20.3 °F 30.04 in NW 9.2 mph 9.2 mph 85% 0.00 in 0.0 W/m2
04:28 24.0 °F 19.9 °F 30.04 in WNW 5.8 mph 5.8 mph 84% 0.00 in 0.0 W/m2
04:33 23.8 °F 19.7 °F 30.04 in WNW 9.2 mph 9.2 mph 84% 0.00 in 0.0 W/m2
04:38 23.6 °F 19.5 °F 30.04 in West 6.9 mph 6.9 mph 84% 0.00 in 0.0 W/m2
04:43 23.4 °F 19.3 °F 30.04 in NW 3.5 mph   84% 0.00 in 0.0 W/m2
04:48 23.2 °F 19.1 °F 30.04 in NW 10.4 mph 10.4 mph 84% 0.00 in 0.0 W/m2
04:53 23.0 °F 18.9 °F 30.04 in NW 3.5 mph 3.5 mph 84% 0.00 in 0.0 W/m2
04:58 22.9 °F 18.8 °F 30.04 in WNW 8.1 mph 8.1 mph 84% 0.00 in 0.0 W/m2
05:03 22.9 °F 18.8 °F 30.05 in WNW 4.6 mph   84% 0.00 in 0.0 W/m2
05:08 22.8 °F 18.7 °F 30.05 in NW 6.0 mph 6.0 mph 84% 0.00 in 0.0 W/m2
05:13 22.7 °F 18.6 °F 30.05 in WNW 8.1 mph 8.1 mph 84% 0.00 in 0.0 W/m2
05:18 22.7 °F 18.6 °F 30.05 in West 8.0 mph 8.0 mph 84% 0.00 in 0.0 W/m2
05:23 22.6 °F 18.5 °F 30.05 in WNW 9.2 mph 9.2 mph 84% 0.00 in 0.0 W/m2
05:28 22.6 °F 18.5 °F 30.05 in West 5.8 mph 5.8 mph 84% 0.00 in 0.0 W/m2
05:33 22.5 °F 18.4 °F 30.05 in WNW 11.5 mph 11.5 mph 84% 0.00 in 0.0 W/m2
05:38 22.5 °F 18.4 °F 30.05 in WNW 6.9 mph 6.9 mph 84% 0.00 in 0.0 W/m2
05:43 22.4 °F 18.3 °F 30.05 in WNW 6.9 mph 6.9 mph 84% 0.00 in 0.0 W/m2
05:48 22.4 °F 18.3 °F 30.06 in WNW 8.1 mph 8.1 mph 84% 0.00 in 0.0 W/m2
05:53 22.4 °F 18.3 °F 30.06 in West 10.4 mph 10.4 mph 84% 0.00 in 0.0 W/m2
05:58 22.4 °F 18.3 °F 30.06 in NW 10.4 mph 10.4 mph 84% 0.00 in 0.0 W/m2
06:03 22.4 °F 18.3 °F 30.06 in WNW 3.5 mph   84% 0.00 in 0.0 W/m2
06:08 22.3 °F 18.2 °F 30.06 in West 8.1 mph 8.1 mph 84% 0.00 in 0.0 W/m2
06:13 22.2 °F 18.4 °F 30.06 in WNW 5.0 mph 5.0 mph 85% 0.00 in 0.0 W/m2
06:18 22.2 °F 18.4 °F 30.06 in WNW 8.1 mph 8.1 mph 85% 0.00 in 7.0 W/m2
06:23 22.3 °F 18.5 °F 30.06 in NW 8.0 mph 8.0 mph 85% 0.00 in 9.0 W/m2
06:28 22.3 °F 18.2 °F 30.06 in West 3.5 mph 3.5 mph 84% 0.00 in 12.0 W/m2
06:33 22.2 °F 18.1 °F 30.07 in WNW 3.5 mph 3.5 mph 84% 0.00 in 14.0 W/m2
06:38 22.3 °F 18.5 °F 30.07 in WNW 10.4 mph 10.4 mph 85% 0.00 in 19.0 W/m2
06:44 22.4 °F 18.3 °F 30.07 in WNW 10.4 mph 10.4 mph 84% 0.00 in 32.0 W/m2
06:49 22.5 °F 18.4 °F 30.07 in WNW 8.1 mph 8.1 mph 84% 0.00 in 44.0 W/m2
06:54 22.5 °F 18.4 °F 30.07 in West 9.2 mph 9.2 mph 84% 0.00 in 56.0 W/m2
06:59 22.6 °F 18.5 °F 30.07 in West 3.5 mph 3.5 mph 84% 0.00 in 67.0 W/m2
07:04 22.6 °F 18.5 °F 30.07 in WNW 4.6 mph 4.6 mph 84% 0.00 in 81.0 W/m2
07:09 22.8 °F 18.7 °F 30.08 in WNW 10.4 mph 10.4 mph 84% 0.00 in 98.0 W/m2
07:14 22.9 °F 18.5 °F 30.08 in NW 11.5 mph 11.5 mph 83% 0.00 in 116.0 W/m2
07:19 23.1 °F 18.7 °F 30.07 in West 10.4 mph 10.4 mph 83% 0.00 in 135.0 W/m2
07:24 23.2 °F 18.5 °F 30.08 in NNW 9.2 mph 9.2 mph 82% 0.00 in 156.0 W/m2
07:29 23.3 °F 18.6 °F 30.07 in WNW 10.4 mph 10.4 mph 82% 0.00 in 178.0 W/m2
07:34 23.5 °F 18.8 °F 30.07 in WNW 11.5 mph 11.5 mph 82% 0.00 in 197.0 W/m2
07:39 23.7 °F 19.0 °F 30.08 in WNW 11.5 mph 11.5 mph 82% 0.00 in 218.0 W/m2
07:44 23.9 °F 18.9 °F 30.08 in WNW 11.5 mph 11.5 mph 81% 0.00 in 237.0 W/m2
07:49 24.0 °F 19.0 °F 30.08 in NW 11.5 mph 11.5 mph 81% 0.00 in 258.0 W/m2
07:54 24.2 °F 19.2 °F 30.08 in WNW 12.7 mph 12.7 mph 81% 0.00 in 276.0 W/m2
07:59 24.5 °F 19.2 °F 30.08 in West 11.5 mph 11.5 mph 80% 0.00 in 294.0 W/m2
08:04 24.5 °F 18.9 °F 30.08 in NW 12.7 mph 12.7 mph 79% 0.00 in 308.0 W/m2
08:09 24.8 °F 19.5 °F 30.08 in WNW 11.5 mph 11.5 mph 80% 0.00 in 306.0 W/m2
08:14 25.0 °F 19.1 °F 30.08 in WNW 11.5 mph 11.5 mph 78% 0.00 in 299.0 W/m2
08:19 25.4 °F 20.1 °F 30.08 in WNW 5.8 mph 5.8 mph 80% 0.00 in 357.0 W/m2
08:24 25.7 °F 20.1 °F 30.08 in NW 8.0 mph 8.0 mph 79% 0.00 in 369.0 W/m2
08:29 25.8 °F 19.6 °F 30.08 in WNW 10.4 mph 10.4 mph 77% 0.00 in 387.0 W/m2
08:34 25.9 °F 20.0 °F 30.08 in WNW 16.1 mph 16.1 mph 78% 0.00 in 404.0 W/m2
08:39 26.1 °F 20.2 °F 30.08 in NW 8.0 mph 8.0 mph 78% 0.00 in 415.0 W/m2
08:44 26.4 °F 20.5 °F 30.08 in WNW 14.0 mph 14.0 mph 78% 0.00 in 420.0 W/m2
08:49 26.5 °F 20.3 °F 30.08 in NW 16.1 mph 16.1 mph 77% 0.00 in 448.0 W/m2
08:54 26.6 °F 20.1 °F 30.08 in WNW 12.0 mph 12.0 mph 76% 0.00 in 464.0 W/m2
08:59 26.7 °F 20.5 °F 30.08 in NW 15.0 mph 15.0 mph 77% 0.00 in 425.0 W/m2
09:04 26.6 °F 19.7 °F 30.08 in WNW 11.5 mph 11.5 mph 75% 0.00 in 490.0 W/m2
09:09 27.0 °F 20.7 °F 30.08 in WNW 12.0 mph 12.0 mph 77% 0.00 in 499.0 W/m2
09:14 27.2 °F 20.6 °F 30.08 in WNW 10.4 mph 10.4 mph 76% 0.00 in 519.0 W/m2
09:19 27.4 °F 20.5 °F 30.08 in WSW 16.1 mph 16.1 mph 75% 0.00 in 529.0 W/m2
09:24 27.5 °F 20.6 °F 30.08 in NW 16.1 mph 16.1 mph 75% 0.00 in 561.0 W/m2
09:29 27.5 °F 20.0 °F 30.08 in NW 13.8 mph 13.8 mph 73% 0.00 in 561.0 W/m2
09:34 28.0 °F 20.8 °F 30.08 in WNW 19.6 mph 19.6 mph 74% 0.00 in 575.0 W/m2
09:39 27.9 °F 19.7 °F 30.08 in West 19.6 mph 19.6 mph 71% 0.00 in 503.0 W/m2
09:44 28.0 °F 20.1 °F 30.08 in WNW 15.0 mph 15.0 mph 72% 0.00 in 635.0 W/m2
09:49 28.6 °F 20.7 °F 30.08 in WNW 15.0 mph 15.0 mph 72% 0.00 in 680.0 W/m2
09:54 28.6 °F 20.4 °F 30.08 in WNW 17.3 mph 17.3 mph 71% 0.00 in 708.0 W/m2
09:59 28.5 °F 20.6 °F 30.08 in WNW 13.8 mph 13.8 mph 72% 0.00 in 722.0 W/m2
10:04 28.7 °F 20.1 °F 30.08 in WNW 17.3 mph 17.3 mph 70% 0.00 in 722.0 W/m2
10:09 28.8 °F 20.9 °F 30.08 in NW 11.5 mph 11.5 mph 72% 0.00 in 779.0 W/m2
10:14 28.7 °F 19.8 °F 30.08 in WNW 13.0 mph 13.0 mph 69% 0.00 in 197.0 W/m2
10:19 28.4 °F 19.5 °F 30.08 in WNW 18.4 mph 18.4 mph 69% 0.00 in 195.0 W/m2
10:24 29.2 °F 21.0 °F 30.08 in NW 15.0 mph 15.0 mph 71% 0.00 in 517.0 W/m2
10:29 29.6 °F 20.7 °F 30.08 in NW 15.0 mph 15.0 mph 69% 0.00 in 791.0 W/m2
10:34 29.8 °F 20.2 °F 30.08 in WNW 15.0 mph 15.0 mph 67% 0.00 in 867.0 W/m2
10:39 29.7 °F 20.1 °F 30.08 in NW 15.0 mph 15.0 mph 67% 0.00 in 127.0 W/m2
10:44 29.7 °F 19.7 °F 30.08 in NW 16.1 mph 16.1 mph 66% 0.00 in 773.0 W/m2
10:49 30.2 °F 20.6 °F 30.08 in WNW 13.8 mph 13.8 mph 67% 0.00 in 800.0 W/m2
10:55 29.8 °F 20.2 °F 30.08 in WNW 14.0 mph 14.0 mph 67% 0.00 in 777.0 W/m2
11:00 30.1 °F 19.7 °F 30.08 in NW 20.7 mph 20.7 mph 65% 0.00 in 759.0 W/m2
11:05 30.8 °F 21.1 °F 30.08 in NW 15.0 mph 15.0 mph 67% 0.00 in 791.0 W/m2
11:10 30.7 °F 20.3 °F 30.08 in NW 19.6 mph 19.6 mph 65% 0.00 in 942.0 W/m2
11:15 30.1 °F 19.7 °F 30.08 in NNW 18.4 mph 18.4 mph 65% 0.00 in 772.0 W/m2
11:20 30.9 °F 20.9 °F 30.08 in NW 18.4 mph 18.4 mph 66% 0.00 in 947.0 W/m2
11:25 30.7 °F 20.7 °F 30.08 in NW 13.8 mph 13.8 mph 66% 0.00 in 932.0 W/m2
11:30 30.8 °F 20.4 °F 30.08 in NW 18.4 mph 18.4 mph 65% 0.00 in 206.0 W/m2
11:35 30.6 °F 20.2 °F 30.08 in WNW 13.8 mph 13.8 mph 65% 0.00 in 860.0 W/m2
11:40 30.5 °F 20.1 °F 30.08 in NW 11.5 mph 11.5 mph 65% 0.00 in 940.0 W/m2
11:45 30.7 °F 20.0 °F 30.08 in West 13.0 mph 13.0 mph 64% 0.00 in 287.0 W/m2
11:50 31.2 °F 21.5 °F 30.08 in WNW 15.0 mph 15.0 mph 67% 0.00 in 800.0 W/m2
11:55 31.3 °F 20.2 °F 30.08 in WNW 15.0 mph 15.0 mph 63% 0.00 in 195.0 W/m2
12:00 30.9 °F 19.8 °F 30.08 in WNW 17.3 mph 17.3 mph 63% 0.00 in 872.0 W/m2
12:05 31.1 °F 20.3 °F 30.07 in NW 17.3 mph 17.3 mph 64% 0.00 in 336.0 W/m2
12:10 30.7 °F 19.6 °F 30.07 in WNW 11.5 mph 11.5 mph 63% 0.00 in 288.0 W/m2
12:15 31.0 °F 19.5 °F 30.07 in WNW 18.4 mph 18.4 mph 62% 0.00 in 220.0 W/m2
12:20 30.6 °F 19.5 °F 30.07 in West 17.3 mph 17.3 mph 63% 0.00 in 380.0 W/m2
12:25 31.0 °F 19.5 °F 30.07 in WNW 18.4 mph 18.4 mph 62% 0.00 in 276.0 W/m2
12:30 32.0 °F 20.4 °F 30.07 in WNW 17.3 mph 17.3 mph 62% 0.00 in 904.0 W/m2
12:35 32.4 °F 20.0 °F 30.07 in NW 19.6 mph 19.6 mph 60% 0.00 in 526.0 W/m2
12:40 32.8 °F 20.0 °F 30.07 in WNW 16.0 mph 16.0 mph 59% 0.00 in 1005.0 W/m2
12:45 31.9 °F 20.0 °F 30.07 in WNW 13.8 mph 13.8 mph 61% 0.00 in 1014.0 W/m2
12:50 32.3 °F 19.6 °F 30.07 in WNW 18.4 mph 18.4 mph 59% 0.00 in 659.0 W/m2
12:55 32.3 °F 19.6 °F 30.07 in WNW 16.1 mph 16.1 mph 59% 0.00 in 292.0 W/m2
13:00 31.8 °F 19.5 °F 30.07 in NW 13.8 mph 13.8 mph 60% 0.00 in 288.0 W/m2
13:05 31.4 °F 18.3 °F 30.07 in WSW 16.1 mph 16.1 mph 58% 0.00 in 253.0 W/m2
13:10 31.0 °F 18.3 °F 30.07 in WNW 11.5 mph 11.5 mph 59% 0.00 in 380.0 W/m2
13:15 31.1 °F 19.2 °F 30.07 in NNW 15.0 mph 15.0 mph 61% 0.00 in 288.0 W/m2
13:20 31.0 °F 18.7 °F 30.07 in NNW 11.5 mph 11.5 mph 60% 0.00 in 288.0 W/m2
13:25 30.7 °F 17.7 °F 30.07 in WNW 19.6 mph 19.6 mph 58% 0.00 in 367.0 W/m2
13:30 30.8 °F 18.5 °F 30.06 in West 13.8 mph 13.8 mph 60% 0.00 in 290.0 W/m2
13:35 30.9 °F 19.0 °F 30.06 in WNW 13.8 mph 13.8 mph 61% 0.00 in 267.0 W/m2
13:40 30.8 °F 18.1 °F 30.06 in West 13.8 mph 13.8 mph 59% 0.00 in 216.0 W/m2
13:45 30.5 °F 18.6 °F 30.07 in NW 15.0 mph 15.0 mph 61% 0.00 in 239.0 W/m2
13:50 30.3 °F 18.1 °F 30.07 in West 11.5 mph 11.5 mph 60% 0.00 in 193.0 W/m2
13:55 30.3 °F 17.7 °F 30.07 in WSW 15.0 mph 15.0 mph 59% 0.00 in 271.0 W/m2
14:00 30.3 °F 17.7 °F 30.07 in WNW 18.4 mph 18.4 mph 59% 0.00 in 250.0 W/m2
14:05 30.4 °F 18.5 °F 30.07 in WNW 12.7 mph 12.7 mph 61% 0.00 in 207.0 W/m2
14:10 30.4 °F 18.2 °F 30.07 in NW 19.6 mph 19.6 mph 60% 0.00 in 188.0 W/m2
14:15 30.3 °F 18.5 °F 30.06 in NW 16.0 mph 16.0 mph 61% 0.00 in 260.0 W/m2
14:20 30.3 °F 18.1 °F 30.06 in WSW 13.8 mph 13.8 mph 60% 0.00 in 220.0 W/m2
14:26 30.6 °F 18.3 °F 30.06 in West 10.4 mph 10.4 mph 60% 0.00 in 197.0 W/m2
14:31 30.6 °F 18.0 °F 30.06 in WNW 15.0 mph 15.0 mph 59% 0.00 in 181.0 W/m2
14:36 30.3 °F 18.1 °F 30.07 in NW 12.7 mph 12.7 mph 60% 0.00 in 172.0 W/m2
14:41 30.1 °F 18.3 °F 30.07 in WNW 17.3 mph 17.3 mph 61% 0.00 in 153.0 W/m2
14:46 29.9 °F 18.1 °F 30.07 in WNW 12.7 mph 12.7 mph 61% 0.00 in 142.0 W/m2
14:51 29.8 °F 18.4 °F 30.06 in NW 12.7 mph 12.7 mph 62% 0.00 in 149.0 W/m2
14:56 29.8 °F 18.4 °F 30.06 in WNW 15.0 mph 15.0 mph 62% 0.00 in 151.0 W/m2
15:01 30.0 °F 18.5 °F 30.06 in NW 10.4 mph 10.4 mph 62% 0.00 in 176.0 W/m2
15:06 30.1 °F 18.6 °F 30.06 in WNW 12.7 mph 12.7 mph 62% 0.00 in 185.0 W/m2
15:11 29.9 °F 18.5 °F 30.06 in WNW 13.8 mph 13.8 mph 62% 0.00 in 160.0 W/m2
15:16 30.0 °F 18.9 °F 30.07 in WNW 12.7 mph 12.7 mph 63% 0.00 in 174.0 W/m2
15:21 30.1 °F 18.6 °F 30.07 in West 12.7 mph 12.7 mph 62% 0.00 in 165.0 W/m2
15:26 30.0 °F 18.5 °F 30.07 in NW 13.8 mph 13.8 mph 62% 0.00 in 141.0 W/m2
15:31 30.0 °F 18.5 °F 30.06 in WNW 16.1 mph 16.1 mph 62% 0.00 in 128.0 W/m2
15:36 29.9 °F 18.5 °F 30.06 in West 17.3 mph 17.3 mph 62% 0.00 in 135.0 W/m2
15:41 29.9 °F 18.5 °F 30.06 in NW 14.0 mph 14.0 mph 62% 0.00 in 139.0 W/m2
15:46 29.9 °F 18.5 °F 30.06 in WNW 9.0 mph 9.0 mph 62% 0.00 in 139.0 W/m2
15:51 30.0 °F 18.9 °F 30.06 in WNW 10.4 mph 10.4 mph 63% 0.00 in 151.0 W/m2
15:56 30.1 °F 18.6 °F 30.06 in NW 13.8 mph 13.8 mph 62% 0.00 in 151.0 W/m2
16:01 30.5 °F 19.0 °F 30.07 in NW 12.7 mph 12.7 mph 62% 0.00 in 230.0 W/m2
16:06 30.8 °F 19.3 °F 30.07 in WNW 12.7 mph 12.7 mph 62% 0.00 in 149.0 W/m2
16:11 30.7 °F 19.6 °F 30.07 in NW 9.0 mph 9.0 mph 63% 0.00 in 109.0 W/m2
16:16 30.5 °F 19.4 °F 30.07 in WNW 11.5 mph 11.5 mph 63% 0.00 in 114.0 W/m2
16:21 30.3 °F 19.2 °F 30.07 in West 10.0 mph 10.0 mph 63% 0.00 in 95.0 W/m2
16:26 30.1 °F 19.0 °F 30.07 in WNW 11.5 mph 11.5 mph 63% 0.00 in 156.0 W/m2
16:31 30.0 °F 18.9 °F 30.07 in West 11.5 mph 11.5 mph 63% 0.00 in 72.0 W/m2
16:36 29.9 °F 18.8 °F 30.07 in WNW 11.5 mph 11.5 mph 63% 0.00 in 69.0 W/m2
16:41 30.0 °F 19.7 °F 30.07 in NW 12.7 mph 12.7 mph 65% 0.00 in 79.0 W/m2
16:46 30.0 °F 19.3 °F 30.07 in NW 11.5 mph 11.5 mph 64% 0.00 in 76.0 W/m2
16:51 30.0 °F 18.9 °F 30.06 in WNW 10.4 mph 10.4 mph 63% 0.00 in 51.0 W/m2
16:56 29.9 °F 18.8 °F 30.07 in NW 11.5 mph 11.5 mph 63% 0.00 in 44.0 W/m2
17:01 29.8 °F 19.1 °F 30.07 in NNW 7.0 mph 7.2 mph 64% 0.00 in 40.0 W/m2
17:06 29.8 °F 19.1 °F 30.07 in WNW 11.5 mph 11.5 mph 64% 0.00 in 40.0 W/m2
17:11 29.7 °F 19.0 °F 30.06 in WNW 9.2 mph 9.2 mph 64% 0.00 in 40.0 W/m2
17:16 29.6 °F 18.9 °F 30.06 in WNW 11.5 mph 11.5 mph 64% 0.00 in 30.0 W/m2
17:21 29.5 °F 18.8 °F 30.06 in NW 11.5 mph 11.5 mph 64% 0.00 in 26.0 W/m2
17:26 29.3 °F 18.6 °F 30.06 in WNW 10.4 mph 10.4 mph 64% 0.00 in 16.0 W/m2
17:31 29.2 °F 18.9 °F 30.07 in WNW 10.4 mph 10.4 mph 65% 0.00 in 16.0 W/m2
17:36 29.2 °F 19.2 °F 30.07 in WNW 10.0 mph 10.0 mph 66% 0.00 in 14.0 W/m2
17:41 29.2 °F 19.2 °F 30.07 in WNW 6.9 mph 6.9 mph 66% 0.00 in 9.0 W/m2
17:46 29.2 °F 19.2 °F 30.07 in WNW 10.4 mph 10.4 mph 66% 0.00 in 5.0 W/m2
17:51 29.1 °F 19.2 °F 30.07 in WNW 9.2 mph 9.2 mph 66% 0.00 in 0.0 W/m2
17:56 29.0 °F 19.1 °F 30.07 in NW 4.6 mph 4.6 mph 66% 0.00 in 0.0 W/m2
18:01 28.9 °F 19.0 °F 30.07 in NW 9.2 mph 9.2 mph 66% 0.00 in 0.0 W/m2
18:06 28.9 °F 19.0 °F 30.07 in WNW 4.6 mph 4.6 mph 66% 0.00 in 0.0 W/m2
18:11 28.9 °F 18.6 °F 30.07 in NW 10.4 mph 10.4 mph 65% 0.00 in 0.0 W/m2
18:16 29.0 °F 18.7 °F 30.08 in WNW 9.2 mph 9.2 mph 65% 0.00 in 0.0 W/m2
18:21 28.9 °F 18.6 °F 30.08 in WNW 5.8 mph 5.8 mph 65% 0.00 in 0.0 W/m2
18:26 28.7 °F 18.8 °F 30.08 in WNW 7.0 mph 7.0 mph 66% 0.00 in 0.0 W/m2
18:31 28.6 °F 19.0 °F 30.08 in WNW 1.2 mph   67% 0.00 in 0.0 W/m2
18:37 28.4 °F 19.2 °F 30.08 in Calm     68% 0.00 in 0.0 W/m2
18:42 28.3 °F 19.4 °F 30.08 in Calm     69% 0.00 in 0.0 W/m2
18:47 28.2 °F 19.3 °F 30.08 in Calm     69% 0.00 in 0.0 W/m2
18:52 28.1 °F 19.2 °F 30.08 in Calm     69% 0.00 in 0.0 W/m2
18:57 27.9 °F 19.0 °F 30.08 in Calm     69% 0.00 in 0.0 W/m2
19:02 27.8 °F 18.9 °F 30.08 in Calm     69% 0.00 in 0.0 W/m2
19:07 27.8 °F 18.9 °F 30.08 in Calm     69% 0.00 in 0.0 W/m2
19:12 27.8 °F 18.9 °F 30.08 in Calm     69% 0.00 in 0.0 W/m2
19:17 27.8 °F 18.9 °F 30.08 in WNW 1.2 mph   69% 0.00 in 0.0 W/m2
19:22 27.7 °F 19.2 °F 30.09 in Calm     70% 0.00 in 0.0 W/m2
19:27 27.7 °F 19.2 °F 30.09 in West 3.5 mph 3.5 mph 70% 0.00 in 0.0 W/m2
19:32 27.7 °F 19.2 °F 30.09 in Calm     70% 0.00 in 0.0 W/m2
19:37 27.6 °F 19.1 °F 30.08 in Calm     70% 0.00 in 0.0 W/m2
19:42 27.6 °F 19.1 °F 30.09 in West 3.5 mph 3.5 mph 70% 0.00 in 0.0 W/m2
19:47 27.5 °F 19.0 °F 30.09 in West 1.2 mph 1.2 mph 70% 0.00 in 0.0 W/m2
19:52 27.5 °F 19.0 °F 30.09 in Calm     70% 0.00 in 0.0 W/m2
19:57 27.4 °F 18.9 °F 30.09 in Calm     70% 0.00 in 0.0 W/m2
20:02 27.2 °F 18.7 °F 30.09 in Calm     70% 0.00 in 0.0 W/m2
20:07 27.1 °F 18.9 °F 30.09 in WNW 1.2 mph 1.2 mph 71% 0.00 in 0.0 W/m2
20:12 27.1 °F 18.9 °F 30.09 in Calm     71% 0.00 in 0.0 W/m2
20:17 27.2 °F 19.0 °F 30.09 in West 1.2 mph 1.2 mph 71% 0.00 in 0.0 W/m2
20:22 27.2 °F 19.0 °F 30.09 in Calm     71% 0.00 in 0.0 W/m2
20:27 27.2 °F 19.0 °F 30.09 in Calm     71% 0.00 in 0.0 W/m2
20:32 27.2 °F 19.0 °F 30.09 in WSW 1.2 mph 1.2 mph 71% 0.00 in 0.0 W/m2
20:37 27.2 °F 19.0 °F 30.09 in Calm     71% 0.00 in 0.0 W/m2
20:42 27.1 °F 18.9 °F 30.09 in Calm     71% 0.00 in 0.0 W/m2
20:47 27.1 °F 18.9 °F 30.09 in Calm     71% 0.00 in 0.0 W/m2
20:52 27.0 °F 19.2 °F 30.09 in Calm     72% 0.00 in 0.0 W/m2
20:57 26.8 °F 19.0 °F 30.09 in Calm     72% 0.00 in 0.0 W/m2
21:02 26.7 °F 18.9 °F 30.09 in WSW 1.2 mph 1.2 mph 72% 0.00 in 0.0 W/m2
21:07 26.7 °F 19.2 °F 30.09 in WNW 3.5 mph 3.5 mph 73% 0.00 in 0.0 W/m2
21:12 26.7 °F 19.2 °F 30.09 in West 2.3 mph 2.3 mph 73% 0.00 in 0.0 W/m2
21:17 26.6 °F 19.1 °F 30.09 in West 1.2 mph   73% 0.00 in 0.0 W/m2
21:22 26.5 °F 19.0 °F 30.09 in WNW 1.2 mph 1.2 mph 73% 0.00 in 0.0 W/m2
21:27 26.5 °F 19.0 °F 30.09 in WNW 3.5 mph 3.5 mph 73% 0.00 in 0.0 W/m2
21:32 26.4 °F 18.9 °F 30.08 in Calm     73% 0.00 in 0.0 W/m2
21:37 26.3 °F 18.8 °F 30.08 in Calm     73% 0.00 in 0.0 W/m2
21:42 26.2 °F 18.7 °F 30.08 in Calm     73% 0.00 in 0.0 W/m2
21:47 26.1 °F 18.9 °F 30.08 in WNW 1.2 mph 1.2 mph 74% 0.00 in 0.0 W/m2
21:52 26.1 °F 18.6 °F 30.08 in West 1.0 mph 1.0 mph 73% 0.00 in 0.0 W/m2
21:57 26.1 °F 18.6 °F 30.08 in Calm     73% 0.00 in 0.0 W/m2
22:02 25.9 °F 18.7 °F 30.08 in Calm     74% 0.00 in 0.0 W/m2
22:07 25.8 °F 18.7 °F 30.08 in Calm     74% 0.00 in 0.0 W/m2
22:12 25.7 °F 18.6 °F 30.07 in Calm     74% 0.00 in 0.0 W/m2
22:17 25.7 °F 18.6 °F 30.07 in Calm     74% 0.00 in 0.0 W/m2
22:22 25.6 °F 18.5 °F 30.08 in West 3.5 mph 3.5 mph 74% 0.00 in 0.0 W/m2
22:27 25.4 °F 18.3 °F 30.07 in Calm     74% 0.00 in 0.0 W/m2
22:32 25.4 °F 18.6 °F 30.08 in Calm     75% 0.00 in 0.0 W/m2
22:37 25.3 °F 18.5 °F 30.08 in WNW 1.2 mph 1.2 mph 75% 0.00 in 0.0 W/m2
22:42 25.3 °F 18.5 °F 30.07 in Calm     75% 0.00 in 0.0 W/m2
22:47 25.3 °F 18.5 °F 30.07 in Calm     75% 0.00 in 0.0 W/m2
22:52 25.2 °F 18.4 °F 30.07 in Calm     75% 0.00 in 0.0 W/m2
22:57 25.0 °F 18.2 °F 30.07 in Calm     75% 0.00 in 0.0 W/m2
23:02 24.9 °F 18.4 °F 30.07 in Calm     76% 0.00 in 0.0 W/m2
23:07 24.8 °F 18.3 °F 30.07 in Calm     76% 0.00 in 0.0 W/m2
23:12 24.7 °F 18.2 °F 30.07 in Calm     76% 0.00 in 0.0 W/m2
23:17 24.5 °F 18.0 °F 30.07 in Calm     76% 0.00 in 0.0 W/m2
23:22 24.5 °F 18.3 °F 30.07 in Calm     77% 0.00 in 0.0 W/m2
23:27 24.5 °F 18.3 °F 30.07 in WNW 1.2 mph   77% 0.00 in 0.0 W/m2
23:32 24.5 °F 18.0 °F 30.07 in West 1.2 mph 1.2 mph 76% 0.00 in 0.0 W/m2
23:37 24.5 °F 18.0 °F 30.07 in WNW 3.5 mph   76% 0.00 in 0.0 W/m2
23:42 24.5 °F 18.0 °F 30.07 in WNW 2.3 mph 2.3 mph 76% 0.00 in 0.0 W/m2
23:47 24.4 °F 17.9 °F 30.07 in Calm     76% 0.00 in 0.0 W/m2
23:52 24.4 °F 17.9 °F 30.07 in Calm     76% 0.00 in 0.0 W/m2
23:57 24.3 °F 17.8 °F 30.07 in Calm     76% 0.00 in 0.0 W/m2
Bourbonnais, Illinois, USA
Compliments of Weather Underground - 4 mb